Time;durP1;ratioP1;P1;durP2;ratioP2;P2;SDS_P1;SDS_P2;PMS_P1;PMS_P2;Temp;Humidity;BMP_temperature;BMP_pressure;BME280_temperature;BME280_humidity;BME280_pressure;Samples;Min_cycle;Max_cycle;Signal;HPM_P1;HPM_P2
2023/11/14 00:00:06;;;;;;;;;;;;;;;10.01;100.00;95870.38;5124424;28;19945;-71
2023/11/14 00:02:33;;;;;;;;;;;;;;;9.99;100.00;95861.16;5124656;28;20125;-76
2023/11/14 00:04:59;;;;;;;;;;;;;;;9.95;100.00;95876.53;5124386;28;20245;-72
2023/11/14 00:07:25;;;;;;;;;;;;;;;9.92;100.00;95840.31;5124304;28;19938;-72
2023/11/14 00:09:51;;;;;;;;;;;;;;;9.90;100.00;95837.94;5124282;28;19943;-72
2023/11/14 00:12:19;;;;;;;;;;;;;;;9.91;100.00;95842.16;5124917;28;20218;-73
2023/11/14 00:14:45;;;;;;;;;;;;;;;9.90;100.00;95842.38;5125072;28;19946;-73
2023/11/14 00:17:11;;;;;;;;;;;;;;;9.91;100.00;95828.25;5123825;28;19942;-73
2023/11/14 00:19:38;;;;;;;;;;;;;;;9.89;100.00;95812.78;5124289;28;19943;-76
2023/11/14 00:22:05;;;;;;;;;;;;;;;9.89;100.00;95811.97;5124229;28;19938;-73
2023/11/14 00:24:30;;;;;;;;;;;;;;;9.87;100.00;95825.31;5124149;28;19937;-73
2023/11/14 00:26:56;;;;;;;;;;;;;;;9.87;100.00;95842.81;5124152;28;19951;-73
2023/11/14 00:29:22;;;;;;;;;;;;;;;9.85;100.00;95832.59;5123724;28;19938;-73
2023/11/14 00:31:48;;;;;;;;;;;;;;;9.85;100.00;95840.44;5124833;28;19993;-73
2023/11/14 00:34:14;;;;;;;;;;;;;;;9.87;100.00;95856.72;5124791;28;19933;-73
2023/11/14 00:36:41;;;;;;;;;;;;;;;9.89;100.00;95865.16;5122900;28;19938;-73
2023/11/14 00:39:08;;;;;;;;;;;;;;;9.90;100.00;95869.34;5124070;28;19954;-75
2023/11/14 00:41:35;;;;;;;;;;;;;;;9.93;100.00;95873.34;5124822;28;20242;-76
2023/11/14 00:44:02;;;;;;;;;;;;;;;9.94;100.00;95874.94;5124255;28;20255;-77
2023/11/14 00:46:28;;;;;;;;;;;;;;;9.93;100.00;95868.09;5123907;28;19943;-77
2023/11/14 00:48:54;;;;;;;;;;;;;;;9.92;100.00;95874.38;5123589;28;19941;-77
2023/11/14 00:51:20;;;;;;;;;;;;;;;9.92;100.00;95879.59;5123697;28;20157;-77
2023/11/14 00:53:49;;;;;;;;;;;;;;;9.92;100.00;95862.06;5124152;28;19941;-76
2023/11/14 00:56:15;;;;;;;;;;;;;;;9.91;100.00;95854.44;5127378;28;19933;-85
2023/11/14 00:58:41;;;;;;;;;;;;;;;9.89;100.00;95854.69;5127658;28;20255;-70
2023/11/14 01:01:07;;;;;;;;;;;;;;;9.91;100.00;95867.53;5127571;28;20097;-71
2023/11/14 01:03:34;;;;;;;;;;;;;;;9.89;100.00;95866.94;5128336;28;19945;-71
2023/11/14 01:06:00;;;;;;;;;;;;;;;9.88;100.00;95868.00;5127989;28;19946;-71
2023/11/14 01:08:26;;;;;;;;;;;;;;;9.86;100.00;95862.97;5127615;28;20223;-71
2023/11/14 01:10:52;;;;;;;;;;;;;;;9.84;100.00;95877.31;5126870;28;19950;-70
2023/11/14 01:13:18;;;;;;;;;;;;;;;9.84;100.00;95883.34;5127276;28;20002;-72
2023/11/14 01:15:44;;;;;;;;;;;;;;;9.84;100.00;95885.19;5128044;28;19938;-75
2023/11/14 01:18:11;;;;;;;;;;;;;;;9.81;100.00;95891.69;5127303;28;19940;-83
2023/11/14 01:20:37;;;;;;;;;;;;;;;9.79;100.00;95908.66;5127433;28;19941;-83
2023/11/14 01:23:03;;;;;;;;;;;;;;;9.78;100.00;95907.03;5127132;28;19936;-80
2023/11/14 01:25:29;;;;;;;;;;;;;;;9.77;100.00;95902.84;5125989;28;19943;-84
2023/11/14 01:27:55;;;;;;;;;;;;;;;9.71;100.00;95902.69;5127048;28;19939;-85
2023/11/14 01:30:20;;;;;;;;;;;;;;;9.70;100.00;95908.16;5126386;28;19948;-84
2023/11/14 01:32:46;;;;;;;;;;;;;;;9.70;100.00;95931.72;5126852;28;19959;-73
2023/11/14 01:35:12;;;;;;;;;;;;;;;9.67;100.00;95924.31;5126774;28;19942;-73
2023/11/14 01:37:38;;;;;;;;;;;;;;;9.66;100.00;95912.25;5126560;28;19947;-73
2023/11/14 01:40:05;;;;;;;;;;;;;;;9.65;100.00;95910.66;5127013;28;19939;-73
2023/11/14 01:42:31;;;;;;;;;;;;;;;9.64;100.00;95909.03;5126658;28;19943;-72
2023/11/14 01:44:57;;;;;;;;;;;;;;;9.64;100.00;95898.56;5126589;28;20162;-71
2023/11/14 01:47:26;;;;;;;;;;;;;;;9.62;100.00;95908.50;5127105;28;19935;-72
2023/11/14 01:49:52;;;;;;;;;;;;;;;9.63;100.00;95908.25;5126880;28;19977;-72
2023/11/14 01:52:19;;;;;;;;;;;;;;;9.64;100.00;95917.72;5125879;28;20284;-71
2023/11/14 01:54:45;;;;;;;;;;;;;;;9.63;100.00;95928.41;5126505;28;19940;-71
2023/11/14 01:57:12;;;;;;;;;;;;;;;9.61;100.00;95909.50;5126970;28;19931;-71
2023/11/14 01:59:38;;;;;;;;;;;;;;;9.60;100.00;95902.69;5126406;28;19944;-71
2023/11/14 02:02:05;;;;;;;;;;;;;;;9.58;100.00;95915.22;5126348;28;19934;-72
2023/11/14 02:04:32;;;;;;;;;;;;;;;9.58;100.00;95939.56;5127108;28;19944;-70
2023/11/14 02:06:58;;;;;;;;;;;;;;;9.59;100.00;95920.19;5126030;28;19944;-70
2023/11/14 02:09:25;;;;;;;;;;;;;;;9.59;100.00;95882.75;5126200;28;19937;-72
2023/11/14 02:11:51;;;;;;;;;;;;;;;9.60;100.00;95928.88;5126173;28;19954;-73
2023/11/14 02:14:17;;;;;;;;;;;;;;;9.59;100.00;95927.25;5126124;28;20143;-72
2023/11/14 02:16:47;;;;;;;;;;;;;;;9.57;100.00;95937.94;5124905;28;19942;-73
2023/11/14 02:19:13;;;;;;;;;;;;;;;9.57;100.00;95918.84;5124851;28;19971;-72
2023/11/14 02:21:41;;;;;;;;;;;;;;;9.53;100.00;95913.25;5125936;28;19945;-73
2023/11/14 02:24:08;;;;;;;;;;;;;;;9.52;100.00;95914.28;5125923;28;19936;-71
2023/11/14 02:26:34;;;;;;;;;;;;;;;9.52;100.00;95917.69;5125666;28;20122;-71
2023/11/14 02:29:00;;;;;;;;;;;;;;;9.51;100.00;95917.91;5125829;28;19979;-70
2023/11/14 02:31:27;;;;;;;;;;;;;;;9.50;100.00;95930.19;5125677;28;19939;-74
2023/11/14 02:33:53;;;;;;;;;;;;;;;9.51;100.00;95930.97;5126557;28;20132;-74
2023/11/14 02:36:19;;;;;;;;;;;;;;;9.50;100.00;95905.84;5125659;28;19942;-73
2023/11/14 02:38:45;;;;;;;;;;;;;;;9.49;100.00;95912.09;5125692;28;20003;-74
2023/11/14 02:41:10;;;;;;;;;;;;;;;9.49;100.00;95897.19;5124487;28;19954;-75
2023/11/14 02:43:36;;;;;;;;;;;;;;;9.49;100.00;95912.09;5125626;28;19974;-76
2023/11/14 02:46:02;;;;;;;;;;;;;;;9.49;100.00;95897.19;5125496;28;19993;-83
2023/11/14 02:48:28;;;;;;;;;;;;;;;9.48;100.00;95900.03;5125775;28;19964;-73
2023/11/14 02:50:55;;;;;;;;;;;;;;;9.46;100.00;95878.53;5125237;28;19963;-72
2023/11/14 02:53:22;;;;;;;;;;;;;;;9.43;100.00;95887.63;5125265;28;20256;-72
2023/11/14 02:55:51;;;;;;;;;;;;;;;9.43;100.00;95895.47;5125300;28;19937;-72
2023/11/14 02:58:18;;;;;;;;;;;;;;;9.41;100.00;95904.56;5125229;28;19935;-72
2023/11/14 03:00:54;;;;;;;;;;;;;;;9.40;100.00;95905.59;5125281;28;20000;-72
2023/11/14 03:03:20;;;;;;;;;;;;;;;9.37;100.00;95914.69;5125745;28;19937;-73
2023/11/14 03:05:46;;;;;;;;;;;;;;;9.34;100.00;95915.13;5125386;28;20001;-78
2023/11/14 03:08:12;;;;;;;;;;;;;;;9.32;100.00;95922.41;5124034;28;19944;-71
2023/11/14 03:10:38;;;;;;;;;;;;;;;9.28;100.00;95922.06;5124967;28;19940;-71
2023/11/14 03:13:06;;;;;;;;;;;;;;;9.25;100.00;95917.25;5124918;28;19961;-71
2023/11/14 03:15:32;;;;;;;;;;;;;;;9.22;100.00;95932.59;5124959;28;19936;-71
2023/11/14 03:17:58;;;;;;;;;;;;;;;9.19;100.00;95943.50;5125089;28;19944;-70
2023/11/14 03:20:24;;;;;;;;;;;;;;;9.16;100.00;95934.28;5124866;28;19938;-72
2023/11/14 03:22:50;;;;;;;;;;;;;;;9.12;100.00;95956.69;5124771;28;20097;-70
2023/11/14 03:25:16;;;;;;;;;;;;;;;9.09;100.00;95959.72;5125042;28;19940;-86
2023/11/14 03:27:42;;;;;;;;;;;;;;;9.08;100.00;95963.38;5124840;28;19945;-75
2023/11/14 03:30:08;;;;;;;;;;;;;;;9.05;100.00;95962.00;5124642;28;20278;-75
2023/11/14 03:32:35;;;;;;;;;;;;;;;9.03;100.00;95971.06;5125134;28;19965;-73
2023/11/14 03:35:01;;;;;;;;;;;;;;;9.02;100.00;95980.72;5125257;28;19945;-74
2023/11/14 03:37:27;;;;;;;;;;;;;;;9.00;100.00;95980.16;5124636;28;19934;-74
2023/11/14 03:39:52;;;;;;;;;;;;;;;8.98;100.00;96000.47;5124670;28;19945;-73
2023/11/14 03:42:18;;;;;;;;;;;;;;;8.97;100.00;95991.06;5124608;28;19929;-74
2023/11/14 03:44:44;;;;;;;;;;;;;;;8.96;100.00;95970.34;5124515;28;19952;-69
2023/11/14 03:47:10;;;;;;;;;;;;;;;8.92;100.00;95976.03;5125063;28;19932;-69
2023/11/14 03:49:36;;;;;;;;;;;;;;;8.89;100.00;95966.00;5124334;28;19961;-69
2023/11/14 03:52:02;;;;;;;;;;;;;;;8.88;100.00;95974.03;5125252;28;20089;-69
2023/11/14 03:54:28;;;;;;;;;;;;;;;8.85;100.00;95977.91;5124341;28;20128;-70
2023/11/14 03:56:54;;;;;;;;;;;;;;;8.83;100.00;95959.00;5124270;28;19988;-69
2023/11/14 03:59:20;;;;;;;;;;;;;;;8.82;100.00;95957.44;5124393;28;20232;-69
2023/11/14 04:01:46;;;;;;;;;;;;;;;8.80;100.00;95969.09;5124500;28;19938;-73
2023/11/14 04:04:12;;;;;;;;;;;;;;;8.79;100.00;95983.22;5125147;28;19937;-78
2023/11/14 04:06:38;;;;;;;;;;;;;;;8.76;100.00;95994.91;5124358;28;19939;-78
2023/11/14 04:09:05;;;;;;;;;;;;;;;8.74;100.00;95997.72;5125141;28;20125;-76
2023/11/14 04:11:31;;;;;;;;;;;;;;;8.72;100.00;95998.97;5124298;28;19965;-76
2023/11/14 04:13:57;;;;;;;;;;;;;;;8.70;100.00;96003.63;5124739;28;20227;-76
2023/11/14 04:16:23;;;;;;;;;;;;;;;8.67;100.00;95996.19;5124258;28;19942;-76
2023/11/14 04:18:49;;;;;;;;;;;;;;;8.64;100.00;96002.66;5124198;28;19945;-76
2023/11/14 04:21:19;;;;;;;;;;;;;;;8.64;100.00;96004.47;5124799;28;19947;-70
2023/11/14 04:23:45;;;;;;;;;;;;;;;8.63;100.00;96000.25;5123461;28;19952;-70
2023/11/14 04:26:13;;;;;;;;;;;;;;;8.61;100.00;95997.06;5124944;28;20229;-70
2023/11/14 04:28:38;;;;;;;;;;;;;;;8.58;100.00;96002.72;5124043;28;19946;-70
2023/11/14 04:31:04;;;;;;;;;;;;;;;8.55;100.00;95993.50;5128093;28;20005;-69
2023/11/14 04:33:30;;;;;;;;;;;;;;;8.52;100.00;95988.69;5128538;28;19955;-69
2023/11/14 04:35:56;;;;;;;;;;;;;;;8.48;100.00;95985.72;5128036;28;19942;-70
2023/11/14 04:38:22;;;;;;;;;;;;;;;8.47;100.00;96005.03;5127979;28;19940;-73
2023/11/14 04:40:48;;;;;;;;;;;;;;;8.47;100.00;95993.78;5127978;28;19942;-81
2023/11/14 04:43:14;;;;;;;;;;;;;;;8.47;100.00;95999.00;5126822;28;19940;-81
2023/11/14 04:45:40;;;;;;;;;;;;;;;8.47;100.00;96004.22;5127869;28;19940;-77
2023/11/14 04:48:06;;;;;;;;;;;;;;;8.46;100.00;96005.22;5128113;28;19943;-76
2023/11/14 04:50:32;;;;;;;;;;;;;;;8.47;100.00;96012.88;5127662;28;19965;-77
2023/11/14 04:52:58;;;;;;;;;;;;;;;8.47;100.00;96010.25;5128206;28;19967;-83
2023/11/14 04:55:24;;;;;;;;;;;;;;;8.49;100.00;96012.66;5128237;28;19937;-72
2023/11/14 04:57:49;;;;;;;;;;;;;;;8.48;100.00;96011.88;5127670;28;19944;-69
2023/11/14 05:00:15;;;;;;;;;;;;;;;8.49;100.00;96015.28;5125990;28;20238;-79
2023/11/14 05:02:42;;;;;;;;;;;;;;;8.49;100.00;96015.28;5128158;28;20209;-80
2023/11/14 05:05:08;;;;;;;;;;;;;;;8.48;100.00;96024.94;5128299;28;19954;-79
2023/11/14 05:07:33;;;;;;;;;;;;;;;8.50;100.00;96027.31;5127458;28;20005;-79
2023/11/14 05:09:59;;;;;;;;;;;;;;;8.51;100.00;96023.69;5127448;28;20257;-79
2023/11/14 05:12:25;;;;;;;;;;;;;;;8.51;100.00;96018.47;5127299;28;19988;-79
2023/11/14 05:14:51;;;;;;;;;;;;;;;8.51;100.00;96023.69;5127407;28;20006;-69
2023/11/14 05:17:17;;;;;;;;;;;;;;;8.50;100.00;96030.75;5128089;28;19933;-70
2023/11/14 05:19:43;;;;;;;;;;;;;;;8.49;100.00;96034.34;5127221;28;19981;-69
2023/11/14 05:22:08;;;;;;;;;;;;;;;8.48;100.00;96045.00;5127423;28;19936;-69
2023/11/14 05:24:34;;;;;;;;;;;;;;;8.47;100.00;96038.19;5127096;28;20004;-69
2023/11/14 05:27:00;;;;;;;;;;;;;;;8.43;100.00;96029.97;5127080;28;19977;-69
2023/11/14 05:29:26;;;;;;;;;;;;;;;8.41;100.00;96031.22;5127000;28;20122;-69
2023/11/14 05:31:52;;;;;;;;;;;;;;;8.38;100.00;96027.19;5127705;28;19936;-82
2023/11/14 05:34:17;;;;;;;;;;;;;;;8.36;100.00;96026.59;5127181;28;19946;-74
2023/11/14 05:36:43;;;;;;;;;;;;;;;8.36;100.00;96034.44;5126848;28;20007;-69
2023/11/14 05:39:10;;;;;;;;;;;;;;;8.39;100.00;96038.44;5126835;28;20015;-71
2023/11/14 05:41:36;;;;;;;;;;;;;;;8.39;100.00;96048.88;5126677;28;19952;-69
2023/11/14 05:44:02;;;;;;;;;;;;;;;8.38;100.00;96052.50;5126687;28;20276;-70
2023/11/14 05:46:28;;;;;;;;;;;;;;;8.33;100.00;96042.69;5127204;28;19942;-70
2023/11/14 05:48:54;;;;;;;;;;;;;;;8.33;100.00;96037.47;5126631;28;19950;-70
2023/11/14 05:51:20;;;;;;;;;;;;;;;8.29;100.00;96037.13;5126723;28;20275;-72
2023/11/14 05:53:46;;;;;;;;;;;;;;;8.25;100.00;96024.66;5126517;28;19965;-71
2023/11/14 05:56:12;;;;;;;;;;;;;;;8.22;100.00;96019.88;5126993;28;19943;-70
2023/11/14 05:58:38;;;;;;;;;;;;;;;8.19;100.00;96028.13;5126439;28;20224;-71
2023/11/14 06:01:05;;;;;;;;;;;;;;;8.12;100.00;96039.44;5126986;28;19935;-71
2023/11/14 06:03:31;;;;;;;;;;;;;;;8.09;100.00;96041.69;5126308;28;19950;-71
2023/11/14 06:05:56;;;;;;;;;;;;;;;8.06;100.00;96040.31;5126859;28;19938;-71
2023/11/14 06:08:22;;;;;;;;;;;;;;;8.05;100.00;96043.91;5126796;28;19946;-78
2023/11/14 06:10:48;;;;;;;;;;;;;;;8.01;100.00;96044.53;5125987;28;19937;-72
2023/11/14 06:13:14;;;;;;;;;;;;;;;8.00;100.00;96040.31;5126631;28;19958;-71
2023/11/14 06:15:40;;;;;;;;;;;;;;;7.98;100.00;96032.72;5126107;28;19987;-70
2023/11/14 06:18:06;;;;;;;;;;;;;;;7.99;100.00;96036.13;5126092;28;19943;-71
2023/11/14 06:20:34;;;;;;;;;;;;;;;7.99;100.00;96036.13;5125601;28;19942;-70
2023/11/14 06:23:00;;;;;;;;;;;;;;;8.00;100.00;96048.97;5125918;28;20206;-71
2023/11/14 06:25:26;;;;;;;;;;;;;;;8.00;100.00;96048.16;5125890;28;19962;-72
2023/11/14 06:27:52;;;;;;;;;;;;;;;8.00;100.00;96048.16;5125970;28;19934;-86
2023/11/14 06:30:19;;;;;;;;;;;;;;;8.04;100.00;96054.56;5125799;28;19964;-80
2023/11/14 06:32:45;;;;;;;;;;;;;;;8.06;100.00;96052.53;5125760;28;20261;-80
2023/11/14 06:35:10;;;;;;;;;;;;;;;8.08;100.00;96059.16;5126610;28;19942;-81
2023/11/14 06:37:42;;;;;;;;;;;;;;;8.10;100.00;96058.94;5125677;28;19937;-80
2023/11/14 06:40:08;;;;;;;;;;;;;;;8.11;100.00;96068.38;5125717;28;19954;-80
2023/11/14 06:42:34;;;;;;;;;;;;;;;8.11;100.00;96063.16;5125026;28;19934;-80
2023/11/14 06:45:00;;;;;;;;;;;;;;;8.12;100.00;96067.38;5125480;28;19958;-80
2023/11/14 06:47:28;;;;;;;;;;;;;;;8.11;100.00;96074.41;5125530;28;19942;-72
2023/11/14 06:49:53;;;;;;;;;;;;;;;8.12;100.00;96067.38;5125306;28;19965;-72
2023/11/14 06:52:19;;;;;;;;;;;;;;;8.12;100.00;96089.03;5124970;28;19979;-71
2023/11/14 06:54:45;;;;;;;;;;;;;;;8.14;100.00;96100.09;5125341;28;19945;-71
2023/11/14 06:57:13;;;;;;;;;;;;;;;8.14;100.00;96084.41;5123694;28;20199;-71
2023/11/14 06:59:39;;;;;;;;;;;;;;;8.14;100.00;96081.81;5125271;28;19948;-71
2023/11/14 07:02:05;;;;;;;;;;;;;;;8.13;100.00;96089.88;5125734;28;19941;-71
2023/11/14 07:04:33;;;;;;;;;;;;;;;8.14;100.00;96083.63;5125716;28;19948;-69
2023/11/14 07:06:59;;;;;;;;;;;;;;;8.12;100.00;96076.00;5125212;28;19946;-72
2023/11/14 07:09:25;;;;;;;;;;;;;;;8.12;100.00;96106.53;5125649;28;19935;-71
2023/11/14 07:11:54;;;;;;;;;;;;;;;8.11;100.00;96118.81;5125015;28;19943;-71
2023/11/14 07:14:22;;;;;;;;;;;;;;;8.11;100.00;96113.56;5124911;28;19953;-72
2023/11/14 07:16:48;;;;;;;;;;;;;;;8.12;100.00;96136.06;5124953;28;19937;-71
2023/11/14 07:19:14;;;;;;;;;;;;;;;8.13;100.00;96131.66;5124902;28;20156;-71
2023/11/14 07:21:41;;;;;;;;;;;;;;;8.11;100.00;96131.88;5124777;28;19938;-72
2023/11/14 07:24:07;;;;;;;;;;;;;;;8.11;100.00;96120.63;5124798;28;19944;-78
2023/11/14 07:26:34;;;;;;;;;;;;;;;8.11;100.00;96121.41;5124751;28;19943;-79
2023/11/14 07:29:00;;;;;;;;;;;;;;;8.12;100.00;96112.56;5124762;28;20118;-78
2023/11/14 07:31:25;;;;;;;;;;;;;;;8.17;100.00;96114.56;5124155;28;19959;-79
2023/11/14 07:33:52;;;;;;;;;;;;;;;8.21;100.00;96120.16;5124578;28;20017;-79
2023/11/14 07:36:18;;;;;;;;;;;;;;;8.25;100.00;96111.69;5124628;28;19943;-79
2023/11/14 07:38:44;;;;;;;;;;;;;;;8.32;100.00;96114.25;5124596;28;19942;-79
2023/11/14 07:41:10;;;;;;;;;;;;;;;8.40;100.00;96121.03;5124583;28;19943;-73
2023/11/14 07:43:37;;;;;;;;;;;;;;;8.44;100.00;96127.47;5124499;28;20264;-77
2023/11/14 07:46:03;;;;;;;;;;;;;;;8.43;100.00;96137.13;5125381;28;19937;-78
2023/11/14 07:48:30;;;;;;;;;;;;;;;8.45;100.00;96155.22;5125309;28;19938;-79
2023/11/14 07:50:56;;;;;;;;;;;;;;;8.44;100.00;96162.25;5124567;28;19964;-78
2023/11/14 07:53:21;;;;;;;;;;;;;;;8.42;100.00;96161.66;5124366;28;19958;-77
2023/11/14 07:55:47;;;;;;;;;;;;;;;8.41;100.00;96161.88;5124450;28;19938;-80
2023/11/14 07:58:13;;;;;;;;;;;;;;;8.39;100.00;96162.03;5124391;28;19964;-78
2023/11/14 08:00:40;;;;;;;;;;;;;;;8.39;100.00;96164.66;5124012;28;19952;-72
2023/11/14 08:03:06;;;;;;;;;;;;;;;8.36;100.00;96157.25;5124531;28;19937;-70
2023/11/14 08:05:33;;;;;;;;;;;;;;;8.36;100.00;96157.25;5128601;28;19932;-71
2023/11/14 08:07:59;;;;;;;;;;;;;;;8.34;100.00;96152.22;5128649;28;19948;-71
2023/11/14 08:10:25;;;;;;;;;;;;;;;8.34;100.00;96159.25;5127406;28;19929;-71
2023/11/14 08:12:50;;;;;;;;;;;;;;;8.36;100.00;96175.53;5128398;28;19950;-72
2023/11/14 08:15:16;;;;;;;;;;;;;;;8.37;100.00;96169.28;5128455;28;19964;-71
2023/11/14 08:17:42;;;;;;;;;;;;;;;8.40;100.00;96147.16;5129248;28;20107;-71
2023/11/14 08:20:10;;;;;;;;;;;;;;;8.43;100.00;96160.63;5128427;28;19937;-70
2023/11/14 08:22:36;;;;;;;;;;;;;;;8.48;100.00;96192.19;5128809;28;20119;-71
2023/11/14 08:25:02;;;;;;;;;;;;;;;8.55;100.00;96210.44;5128191;28;19940;-70
2023/11/14 08:27:30;;;;;;;;;;;;;;;8.60;100.00;96188.88;5128797;28;19938;-71
2023/11/14 08:29:57;;;;;;;;;;;;;;;8.62;100.00;96179.00;5128223;28;19943;-70
2023/11/14 08:32:23;;;;;;;;;;;;;;;8.62;100.00;96168.56;5128176;28;19940;-71
2023/11/14 08:34:49;;;;;;;;;;;;;;;8.62;100.00;96168.56;5128017;28;19969;-71
2023/11/14 08:37:15;;;;;;;;;;;;;;;8.60;100.00;96166.16;5128212;28;19939;-83
2023/11/14 08:39:41;;;;;;;;;;;;;;;8.61;100.00;96146.03;5126902;28;19937;-74
2023/11/14 08:42:11;;;;;;;;;;;;;;;8.77;100.00;96137.66;5128249;28;19935;-74
2023/11/14 08:44:38;;;;;;;;;;;;;;;9.13;100.00;96144.81;5128326;28;20132;-73
2023/11/14 08:47:04;;;;;;;;;;;;;;;9.43;100.00;96124.97;5127990;28;19944;-74
2023/11/14 08:49:30;;;;;;;;;;;;;;;9.47;100.00;96120.91;5127724;28;19944;-74
2023/11/14 08:51:56;;;;;;;;;;;;;;;9.35;100.00;96132.09;5127818;28;19945;-74
2023/11/14 08:54:22;;;;;;;;;;;;;;;9.32;100.00;96144.81;5128445;28;20109;-72
2023/11/14 08:56:47;;;;;;;;;;;;;;;9.43;100.00;96144.09;5127701;28;19946;-82
2023/11/14 08:59:15;;;;;;;;;;;;;;;9.48;100.00;96132.97;5126509;28;19936;-70
2023/11/14 09:01:41;;;;;;;;;;;;;;;9.43;100.00;96157.19;5127571;28;19933;-70
2023/11/14 09:04:10;;;;;;;;;;;;;;;9.34;100.00;96156.69;5127507;28;19934;-70
2023/11/14 09:06:38;;;;;;;;;;;;;;;9.26;100.00;96171.84;5127438;28;20224;-70
2023/11/14 09:09:05;;;;;;;;;;;;;;;9.17;100.00;96178.38;5127430;28;20246;-70
2023/11/14 09:11:30;;;;;;;;;;;;;;;9.08;100.00;96178.66;5127926;28;19932;-71
2023/11/14 09:13:58;;;;;;;;;;;;;;;9.03;100.00;96173.28;5127394;28;20255;-71
2023/11/14 09:16:24;;;;;;;;;;;;;;;9.00;100.00;96147.53;5126286;28;19939;-70
2023/11/14 09:18:50;;;;;;;;;;;;;;;8.98;100.00;96110.34;5127268;28;19933;-69
2023/11/14 09:21:17;;;;;;;;;;;;;;;8.97;100.00;96113.97;5127238;28;19939;-69
2023/11/14 09:23:43;;;;;;;;;;;;;;;8.97;100.00;96131.50;5127998;28;19940;-69
2023/11/14 09:26:10;;;;;;;;;;;;;;;8.95;100.00;96121.22;5127133;28;19947;-69
2023/11/14 09:28:36;;;;;;;;;;;;;;;8.93;100.00;96125.88;5127063;28;20128;-69
2023/11/14 09:31:02;;;;;;;;;;;;;;;8.92;100.00;96138.16;5127561;28;19936;-74
2023/11/14 09:33:29;;;;;;;;;;;;;;;8.93;100.00;96144.19;5127739;28;19954;-72
2023/11/14 09:35:55;;;;;;;;;;;;;;;8.94;100.00;96140.53;5127447;28;19940;-70
2023/11/14 09:38:22;;;;;;;;;;;;;;;8.96;100.00;96154.19;5126884;28;19934;-70
2023/11/14 09:40:48;;;;;;;;;;;;;;;8.97;100.00;96158.44;5126888;28;19934;-69
2023/11/14 09:43:14;;;;;;;;;;;;;;;8.99;100.00;96172.09;5126815;28;19934;-69
2023/11/14 09:45:41;;;;;;;;;;;;;;;9.01;100.00;96164.84;5126755;28;20143;-69
2023/11/14 09:48:08;;;;;;;;;;;;;;;9.03;100.00;96160.19;5126695;28;19941;-69
2023/11/14 09:50:35;;;;;;;;;;;;;;;9.07;100.00;96171.84;5126662;28;19967;-74
2023/11/14 09:53:04;;;;;;;;;;;;;;;9.08;100.00;96173.41;5126594;28;20238;-70
2023/11/14 09:55:30;;;;;;;;;;;;;;;9.09;100.00;96172.41;5126910;28;19943;-70
2023/11/14 09:57:56;;;;;;;;;;;;;;;9.09;100.00;96155.91;5126560;28;19937;-70
2023/11/14 10:00:22;;;;;;;;;;;;;;;9.17;100.00;96166.09;5126448;28;20216;-70
2023/11/14 10:02:48;;;;;;;;;;;;;;;9.22;100.00;96166.25;5126387;28;19938;-69
2023/11/14 10:05:14;;;;;;;;;;;;;;;9.23;100.00;96167.84;5126345;28;19942;-70
2023/11/14 10:07:40;;;;;;;;;;;;;;;9.20;100.00;96170.09;5126520;28;20001;-74
2023/11/14 10:10:06;;;;;;;;;;;;;;;9.19;100.00;96153.59;5126317;28;19942;-74
2023/11/14 10:12:33;;;;;;;;;;;;;;;9.17;100.00;96179.16;5127035;28;19935;-76
2023/11/14 10:14:59;;;;;;;;;;;;;;;9.15;100.00;96183.81;5126188;28;19962;-76
2023/11/14 10:17:29;;;;;;;;;;;;;;;9.14;100.00;96169.16;5126125;28;19936;-77
2023/11/14 10:20:05;;;;;;;;;;;;;;;9.12;100.00;96161.50;5126906;28;20024;-77
2023/11/14 10:22:33;;;;;;;;;;;;;;;9.12;100.00;96142.41;5126813;28;19940;-76
2023/11/14 10:24:58;;;;;;;;;;;;;;;9.17;100.00;96157.44;5126650;28;20132;-77
2023/11/14 10:27:25;;;;;;;;;;;;;;;9.16;100.00;96151.44;5125829;28;19937;-71
2023/11/14 10:29:54;;;;;;;;;;;;;;;9.16;100.00;96143.56;5125811;28;19940;-72
2023/11/14 10:32:22;;;;;;;;;;;;;;;9.18;100.00;96125.84;5125799;28;20116;-71
2023/11/14 10:34:48;;;;;;;;;;;;;;;9.18;100.00;96130.28;5124635;28;19950;-72
2023/11/14 10:37:27;;;;;;;;;;;;;;;9.18;100.00;96140.75;5125709;28;20224;-71
2023/11/14 10:39:53;;;;;;;;;;;;;;;9.19;100.00;96160.66;5125586;28;20217;-72
2023/11/14 10:42:20;;;;;;;;;;;;;;;9.22;100.00;96173.28;5125686;28;19939;-72
2023/11/14 10:45:01;;;;;;;;;;;;;;;9.24;100.00;96166.03;5125516;28;19951;-72
2023/11/14 10:47:40;;;;;;;;;;;;;;;9.26;100.00;96162.19;5125585;28;19933;-77
2023/11/14 10:50:08;;;;;;;;;;;;;;;9.27;100.00;96160.38;5124129;28;19970;-72
2023/11/14 10:52:35;;;;;;;;;;;;;;;9.27;100.00;96131.59;5125343;28;19960;-73
2023/11/14 10:55:01;;;;;;;;;;;;;;;9.27;100.00;96111.44;5125386;28;19958;-71
2023/11/14 10:57:28;;;;;;;;;;;;;;;9.29;100.00;96119.88;5125239;28;19934;-72
2023/11/14 10:59:56;;;;;;;;;;;;;;;9.32;100.00;96113.41;5125214;28;19938;-72
2023/11/14 11:02:23;;;;;;;;;;;;;;;9.34;100.00;96106.97;5125238;28;19935;-72
2023/11/14 11:04:48;;;;;;;;;;;;;;;9.38;100.00;96086.38;5125839;28;19949;-85
2023/11/14 11:07:14;;;;;;;;;;;;;;;9.42;100.00;96091.97;5125061;28;19935;-82
2023/11/14 11:09:41;;;;;;;;;;;;;;;9.44;100.00;96095.19;5125882;28;20117;-83
2023/11/14 11:12:08;;;;;;;;;;;;;;;9.45;100.00;96091.53;5125172;28;19935;-82
2023/11/14 11:14:34;;;;;;;;;;;;;;;9.47;100.00;96079.84;5125022;28;19951;-83
2023/11/14 11:17:00;;;;;;;;;;;;;;;9.48;100.00;96078.81;5125059;28;19940;-80
2023/11/14 11:19:28;;;;;;;;;;;;;;;9.54;100.00;96072.69;5124957;28;19937;-83
2023/11/14 11:22:00;;;;;;;;;;;;;;;9.58;100.00;96057.34;5125028;28;19937;-86
2023/11/14 11:24:28;;;;;;;;;;;;;;;9.62;100.00;96060.34;5124854;28;19976;-83
2023/11/14 11:27:12;;;;;;;;;;;;;;;9.67;100.00;96057.84;5125362;28;19942;-70
2023/11/14 11:29:48;;;;;;;;;;;;;;;9.72;100.00;96032.59;5125617;28;19936;-70
2023/11/14 11:32:24;;;;;;;;;;;;;;;9.77;100.00;96008.38;5124782;28;20135;-70
2023/11/14 11:35:09;;;;;;;;;;;;;;;9.82;100.00;96002.44;5124693;28;19957;-70
2023/11/14 11:37:47;;;;;;;;;;;;;;;9.86;100.00;95996.53;5124653;28;20123;-70
2023/11/14 11:40:13;;;;;;;;;;;;;;;9.86;100.00;95991.31;5124471;28;19943;-82
2023/11/14 11:42:39;;;;;;;;;;;;;;;9.88;100.00;95988.47;5125475;28;19946;-71
2023/11/14 11:45:06;;;;;;;;;;;;;;;9.89;100.00;95977.78;5124623;28;19954;-84
2023/11/14 11:47:33;;;;;;;;;;;;;;;9.90;100.00;95962.84;5124615;28;20250;-84
2023/11/14 11:49:59;;;;;;;;;;;;;;;9.89;100.00;95958.63;5123460;28;20160;-84
2023/11/14 11:52:24;;;;;;;;;;;;;;;9.84;100.00;95959.28;5107275;28;20057;-85
2023/11/14 11:55:10;;;;;;;;;;;;;;;9.83;100.00;95964.78;5106409;28;19961;-85
2023/11/14 11:57:36;;;;;;;;;;;;;;;9.81;100.00;95979.91;5123278;28;19953;-85
2023/11/14 12:00:08;;;;;;;;;;;;;;;9.78;100.00;95977.72;5124011;28;19938;-71
2023/11/14 12:02:36;;;;;;;;;;;;;;;9.75;100.00;95990.25;5124125;28;19942;-72
2023/11/14 12:05:02;;;;;;;;;;;;;;;9.72;100.00;95971.56;5124436;28;19941;-71
2023/11/14 12:07:29;;;;;;;;;;;;;;;9.72;100.00;95972.38;5123226;28;19940;-72
2023/11/14 12:09:56;;;;;;;;;;;;;;;9.75;100.00;95978.97;5124459;28;19940;-71
2023/11/14 12:12:21;;;;;;;;;;;;;;;9.78;100.00;95960.19;5124905;28;19942;-72
2023/11/14 12:14:47;;;;;;;;;;;;;;;9.81;100.00;95938.81;5125075;28;20081;-72
2023/11/14 12:17:13;;;;;;;;;;;;;;;9.84;100.00;95917.41;5124372;28;19958;-71
2023/11/14 12:19:39;;;;;;;;;;;;;;;9.89;100.00;95922.78;5124308;28;20133;-73
2023/11/14 12:22:06;;;;;;;;;;;;;;;9.92;100.00;95932.78;5124910;28;19939;-81
2023/11/14 12:24:33;;;;;;;;;;;;;;;10.07;100.00;95945.44;5124372;28;19949;-82
2023/11/14 12:26:58;;;;;;;;;;;;;;;10.23;100.00;95925.63;5124306;28;19940;-84
2023/11/14 12:29:25;;;;;;;;;;;;;;;10.26;100.00;95947.97;5124581;28;19935;-84
2023/11/14 12:31:51;;;;;;;;;;;;;;;10.27;100.00;95957.44;5123838;28;19943;-83
2023/11/14 12:34:27;;;;;;;;;;;;;;;10.21;100.00;95945.25;5124123;28;19958;-83
2023/11/14 12:37:03;;;;;;;;;;;;;;;10.16;100.00;95933.63;5124423;28;20016;-81
2023/11/14 12:39:29;;;;;;;;;;;;;;;10.11;100.00;95922.22;5124658;28;20230;-82
2023/11/14 12:41:55;;;;;;;;;;;;;;;10.06;100.00;95920.28;5124078;28;19941;-81